sensor_id;sensor_type;location;lat;lon;timestamp;P1;durP1;ratioP1;P2;durP2;ratioP2
13208;SDS011;6669;42.678;23.332;2023-07-29T00:02:04;2.13;;;1.92;;
13208;SDS011;6669;42.678;23.332;2023-07-29T00:04:32;1.95;;;1.83;;
13208;SDS011;6669;42.678;23.332;2023-07-29T00:07:00;1.70;;;1.60;;
13208;SDS011;6669;42.678;23.332;2023-07-29T00:09:28;2.40;;;2.20;;
13208;SDS011;6669;42.678;23.332;2023-07-29T00:11:56;2.83;;;1.90;;
13208;SDS011;6669;42.678;23.332;2023-07-29T00:14:24;2.17;;;1.98;;
13208;SDS011;6669;42.678;23.332;2023-07-29T00:16:52;2.00;;;1.80;;
13208;SDS011;6669;42.678;23.332;2023-07-29T00:19:21;2.63;;;2.00;;
13208;SDS011;6669;42.678;23.332;2023-07-29T00:21:50;5.43;;;2.15;;
13208;SDS011;6669;42.678;23.332;2023-07-29T00:24:18;1.83;;;1.73;;
13208;SDS011;6669;42.678;23.332;2023-07-29T00:26:46;2.30;;;2.10;;
13208;SDS011;6669;42.678;23.332;2023-07-29T00:29:14;2.58;;;1.98;;
13208;SDS011;6669;42.678;23.332;2023-07-29T00:31:42;2.08;;;1.88;;
13208;SDS011;6669;42.678;23.332;2023-07-29T00:34:10;1.90;;;1.73;;
13208;SDS011;6669;42.678;23.332;2023-07-29T00:36:45;2.28;;;2.08;;
13208;SDS011;6669;42.678;23.332;2023-07-29T00:39:13;2.88;;;2.20;;
13208;SDS011;6669;42.678;23.332;2023-07-29T00:41:41;4.07;;;2.50;;
13208;SDS011;6669;42.678;23.332;2023-07-29T00:44:09;2.95;;;2.08;;
13208;SDS011;6669;42.678;23.332;2023-07-29T00:46:37;7.80;;;2.70;;
13208;SDS011;6669;42.678;23.332;2023-07-29T00:49:08;1.98;;;1.80;;
13208;SDS011;6669;42.678;23.332;2023-07-29T00:51:36;4.28;;;2.00;;
13208;SDS011;6669;42.678;23.332;2023-07-29T00:54:05;4.53;;;1.90;;
13208;SDS011;6669;42.678;23.332;2023-07-29T00:56:33;2.40;;;2.10;;
13208;SDS011;6669;42.678;23.332;2023-07-29T00:59:02;2.30;;;2.05;;
13208;SDS011;6669;42.678;23.332;2023-07-29T01:01:31;2.53;;;2.20;;
13208;SDS011;6669;42.678;23.332;2023-07-29T01:03:59;2.17;;;1.95;;
13208;SDS011;6669;42.678;23.332;2023-07-29T01:06:29;1.63;;;1.52;;
13208;SDS011;6669;42.678;23.332;2023-07-29T01:09:11;2.63;;;2.20;;
13208;SDS011;6669;42.678;23.332;2023-07-29T01:11:52;2.15;;;1.95;;
13208;SDS011;6669;42.678;23.332;2023-07-29T01:14:26;6.32;;;2.40;;
13208;SDS011;6669;42.678;23.332;2023-07-29T01:17:03;6.32;;;2.78;;
13208;SDS011;6669;42.678;23.332;2023-07-29T01:19:41;2.45;;;1.90;;
13208;SDS011;6669;42.678;23.332;2023-07-29T01:22:11;2.30;;;2.03;;
13208;SDS011;6669;42.678;23.332;2023-07-29T01:24:42;2.10;;;1.90;;
13208;SDS011;6669;42.678;23.332;2023-07-29T01:27:10;2.75;;;2.05;;
13208;SDS011;6669;42.678;23.332;2023-07-29T01:29:38;1.98;;;1.80;;
13208;SDS011;6669;42.678;23.332;2023-07-29T01:32:07;1.77;;;1.63;;
13208;SDS011;6669;42.678;23.332;2023-07-29T01:34:41;2.20;;;2.00;;
13208;SDS011;6669;42.678;23.332;2023-07-29T01:37:25;1.85;;;1.75;;
13208;SDS011;6669;42.678;23.332;2023-07-29T01:39:59;1.98;;;1.88;;
13208;SDS011;6669;42.678;23.332;2023-07-29T01:42:28;2.58;;;2.08;;
13208;SDS011;6669;42.678;23.332;2023-07-29T01:44:57;2.42;;;1.70;;
13208;SDS011;6669;42.678;23.332;2023-07-29T01:47:25;1.75;;;1.65;;
13208;SDS011;6669;42.678;23.332;2023-07-29T01:49:53;3.05;;;1.77;;
13208;SDS011;6669;42.678;23.332;2023-07-29T01:52:21;2.30;;;2.00;;
13208;SDS011;6669;42.678;23.332;2023-07-29T01:54:50;2.38;;;2.10;;
13208;SDS011;6669;42.678;23.332;2023-07-29T01:57:19;2.20;;;1.80;;
13208;SDS011;6669;42.678;23.332;2023-07-29T01:59:47;3.50;;;2.10;;
13208;SDS011;6669;42.678;23.332;2023-07-29T02:02:15;2.75;;;2.20;;
13208;SDS011;6669;42.678;23.332;2023-07-29T02:04:43;2.67;;;2.47;;
13208;SDS011;6669;42.678;23.332;2023-07-29T02:07:11;7.53;;;6.00;;
13208;SDS011;6669;42.678;23.332;2023-07-29T02:09:40;3.63;;;3.25;;
13208;SDS011;6669;42.678;23.332;2023-07-29T02:12:08;4.28;;;2.25;;
13208;SDS011;6669;42.678;23.332;2023-07-29T02:14:37;2.47;;;1.98;;
13208;SDS011;6669;42.678;23.332;2023-07-29T02:17:05;3.35;;;2.58;;
13208;SDS011;6669;42.678;23.332;2023-07-29T02:19:34;2.75;;;2.38;;
13208;SDS011;6669;42.678;23.332;2023-07-29T02:22:02;10.43;;;8.27;;
13208;SDS011;6669;42.678;23.332;2023-07-29T02:24:30;6.43;;;4.43;;
13208;SDS011;6669;42.678;23.332;2023-07-29T02:26:58;2.40;;;2.20;;
13208;SDS011;6669;42.678;23.332;2023-07-29T02:29:26;2.65;;;1.90;;
13208;SDS011;6669;42.678;23.332;2023-07-29T02:31:55;2.80;;;1.90;;
13208;SDS011;6669;42.678;23.332;2023-07-29T02:34:23;2.13;;;1.92;;
13208;SDS011;6669;42.678;23.332;2023-07-29T02:36:51;3.15;;;2.40;;
13208;SDS011;6669;42.678;23.332;2023-07-29T02:39:20;16.55;;;5.68;;
13208;SDS011;6669;42.678;23.332;2023-07-29T02:41:48;7.60;;;3.47;;
13208;SDS011;6669;42.678;23.332;2023-07-29T02:44:16;2.55;;;2.35;;
13208;SDS011;6669;42.678;23.332;2023-07-29T02:46:44;1.88;;;1.77;;
13208;SDS011;6669;42.678;23.332;2023-07-29T02:49:13;2.40;;;2.20;;
13208;SDS011;6669;42.678;23.332;2023-07-29T02:51:41;3.13;;;1.92;;
13208;SDS011;6669;42.678;23.332;2023-07-29T02:54:09;5.95;;;2.65;;
13208;SDS011;6669;42.678;23.332;2023-07-29T02:56:37;2.33;;;2.10;;
13208;SDS011;6669;42.678;23.332;2023-07-29T02:59:05;2.85;;;2.08;;
13208;SDS011;6669;42.678;23.332;2023-07-29T03:01:33;2.22;;;2.00;;
13208;SDS011;6669;42.678;23.332;2023-07-29T03:04:01;2.00;;;1.85;;
13208;SDS011;6669;42.678;23.332;2023-07-29T03:06:31;3.30;;;2.42;;
13208;SDS011;6669;42.678;23.332;2023-07-29T03:08:59;2.50;;;2.20;;
13208;SDS011;6669;42.678;23.332;2023-07-29T03:11:27;2.33;;;2.13;;
13208;SDS011;6669;42.678;23.332;2023-07-29T03:13:55;2.60;;;2.40;;
13208;SDS011;6669;42.678;23.332;2023-07-29T03:16:23;3.13;;;2.25;;
13208;SDS011;6669;42.678;23.332;2023-07-29T03:18:51;4.93;;;2.15;;
13208;SDS011;6669;42.678;23.332;2023-07-29T03:21:19;2.53;;;2.33;;
13208;SDS011;6669;42.678;23.332;2023-07-29T03:23:48;3.67;;;2.40;;
13208;SDS011;6669;42.678;23.332;2023-07-29T03:26:16;2.30;;;2.10;;
13208;SDS011;6669;42.678;23.332;2023-07-29T03:28:44;2.45;;;2.22;;
13208;SDS011;6669;42.678;23.332;2023-07-29T03:31:13;4.20;;;2.30;;
13208;SDS011;6669;42.678;23.332;2023-07-29T03:33:41;2.78;;;2.45;;
13208;SDS011;6669;42.678;23.332;2023-07-29T03:36:09;2.30;;;2.10;;
13208;SDS011;6669;42.678;23.332;2023-07-29T03:38:37;2.00;;;1.90;;
13208;SDS011;6669;42.678;23.332;2023-07-29T03:41:08;2.00;;;1.90;;
13208;SDS011;6669;42.678;23.332;2023-07-29T03:43:37;2.55;;;2.05;;
13208;SDS011;6669;42.678;23.332;2023-07-29T03:46:05;2.13;;;1.92;;
13208;SDS011;6669;42.678;23.332;2023-07-29T03:48:37;2.92;;;2.13;;
13208;SDS011;6669;42.678;23.332;2023-07-29T03:51:05;2.25;;;2.05;;
13208;SDS011;6669;42.678;23.332;2023-07-29T03:53:33;2.53;;;2.33;;
13208;SDS011;6669;42.678;23.332;2023-07-29T03:56:02;2.35;;;2.15;;
13208;SDS011;6669;42.678;23.332;2023-07-29T03:58:31;2.47;;;2.25;;
13208;SDS011;6669;42.678;23.332;2023-07-29T04:00:59;2.53;;;2.33;;
13208;SDS011;6669;42.678;23.332;2023-07-29T04:03:27;2.60;;;2.40;;
13208;SDS011;6669;42.678;23.332;2023-07-29T04:05:55;2.17;;;2.00;;
13208;SDS011;6669;42.678;23.332;2023-07-29T04:08:23;2.30;;;2.10;;
13208;SDS011;6669;42.678;23.332;2023-07-29T04:10:52;2.65;;;2.30;;
13208;SDS011;6669;42.678;23.332;2023-07-29T04:13:20;2.17;;;1.98;;
13208;SDS011;6669;42.678;23.332;2023-07-29T04:15:49;2.50;;;2.30;;
13208;SDS011;6669;42.678;23.332;2023-07-29T04:18:17;2.40;;;2.20;;
13208;SDS011;6669;42.678;23.332;2023-07-29T04:20:45;2.88;;;2.58;;
13208;SDS011;6669;42.678;23.332;2023-07-29T04:23:13;2.53;;;2.33;;
13208;SDS011;6669;42.678;23.332;2023-07-29T04:25:41;2.50;;;2.30;;
13208;SDS011;6669;42.678;23.332;2023-07-29T04:28:09;2.92;;;2.30;;
13208;SDS011;6669;42.678;23.332;2023-07-29T04:30:37;2.38;;;2.17;;
13208;SDS011;6669;42.678;23.332;2023-07-29T04:33:06;2.33;;;2.05;;
13208;SDS011;6669;42.678;23.332;2023-07-29T04:35:34;2.53;;;2.33;;
13208;SDS011;6669;42.678;23.332;2023-07-29T04:38:02;2.83;;;1.83;;
13208;SDS011;6669;42.678;23.332;2023-07-29T04:40:32;2.63;;;2.40;;
13208;SDS011;6669;42.678;23.332;2023-07-29T04:43:00;2.42;;;2.22;;
13208;SDS011;6669;42.678;23.332;2023-07-29T04:45:28;2.90;;;2.20;;
13208;SDS011;6669;42.678;23.332;2023-07-29T04:47:57;3.80;;;2.60;;
13208;SDS011;6669;42.678;23.332;2023-07-29T04:50:27;2.45;;;2.25;;
13208;SDS011;6669;42.678;23.332;2023-07-29T04:52:55;2.50;;;2.30;;
13208;SDS011;6669;42.678;23.332;2023-07-29T04:55:23;2.92;;;2.55;;
13208;SDS011;6669;42.678;23.332;2023-07-29T04:57:51;5.40;;;2.50;;
13208;SDS011;6669;42.678;23.332;2023-07-29T05:00:19;2.38;;;2.17;;
13208;SDS011;6669;42.678;23.332;2023-07-29T05:02:47;2.55;;;2.35;;
13208;SDS011;6669;42.678;23.332;2023-07-29T05:05:15;5.65;;;2.80;;
13208;SDS011;6669;42.678;23.332;2023-07-29T05:07:45;3.00;;;2.47;;
13208;SDS011;6669;42.678;23.332;2023-07-29T05:10:12;2.47;;;2.28;;
13208;SDS011;6669;42.678;23.332;2023-07-29T05:12:40;4.90;;;2.78;;
13208;SDS011;6669;42.678;23.332;2023-07-29T05:15:09;3.05;;;2.40;;
13208;SDS011;6669;42.678;23.332;2023-07-29T05:17:37;3.42;;;2.35;;
13208;SDS011;6669;42.678;23.332;2023-07-29T05:20:06;2.40;;;2.08;;
13208;SDS011;6669;42.678;23.332;2023-07-29T05:22:35;2.67;;;2.47;;
13208;SDS011;6669;42.678;23.332;2023-07-29T05:25:05;2.63;;;2.40;;
13208;SDS011;6669;42.678;23.332;2023-07-29T05:27:34;3.83;;;2.28;;
13208;SDS011;6669;42.678;23.332;2023-07-29T05:30:02;3.60;;;2.47;;
13208;SDS011;6669;42.678;23.332;2023-07-29T05:32:30;3.33;;;2.15;;
13208;SDS011;6669;42.678;23.332;2023-07-29T05:34:58;2.50;;;2.30;;
13208;SDS011;6669;42.678;23.332;2023-07-29T05:37:26;9.20;;;6.88;;
13208;SDS011;6669;42.678;23.332;2023-07-29T05:39:54;3.15;;;2.60;;
13208;SDS011;6669;42.678;23.332;2023-07-29T05:42:24;2.63;;;2.17;;
13208;SDS011;6669;42.678;23.332;2023-07-29T05:44:51;2.72;;;2.53;;
13208;SDS011;6669;42.678;23.332;2023-07-29T05:47:19;2.90;;;2.60;;
13208;SDS011;6669;42.678;23.332;2023-07-29T05:49:47;3.63;;;2.92;;
13208;SDS011;6669;42.678;23.332;2023-07-29T05:52:15;3.05;;;2.17;;
13208;SDS011;6669;42.678;23.332;2023-07-29T05:54:44;2.40;;;2.20;;
13208;SDS011;6669;42.678;23.332;2023-07-29T05:57:12;2.78;;;2.08;;
13208;SDS011;6669;42.678;23.332;2023-07-29T05:59:41;2.67;;;2.47;;
13208;SDS011;6669;42.678;23.332;2023-07-29T06:02:09;2.60;;;2.40;;
13208;SDS011;6669;42.678;23.332;2023-07-29T06:04:37;2.55;;;2.20;;
13208;SDS011;6669;42.678;23.332;2023-07-29T06:07:05;2.20;;;2.00;;
13208;SDS011;6669;42.678;23.332;2023-07-29T06:09:33;2.47;;;2.28;;
13208;SDS011;6669;42.678;23.332;2023-07-29T06:12:01;2.28;;;2.08;;
13208;SDS011;6669;42.678;23.332;2023-07-29T06:14:29;2.55;;;2.03;;
13208;SDS011;6669;42.678;23.332;2023-07-29T06:16:59;3.38;;;3.08;;
13208;SDS011;6669;42.678;23.332;2023-07-29T06:19:27;2.63;;;2.10;;
13208;SDS011;6669;42.678;23.332;2023-07-29T06:21:55;2.67;;;2.20;;
13208;SDS011;6669;42.678;23.332;2023-07-29T06:24:23;2.40;;;2.17;;
13208;SDS011;6669;42.678;23.332;2023-07-29T06:26:51;2.53;;;2.03;;
13208;SDS011;6669;42.678;23.332;2023-07-29T06:29:19;2.75;;;2.20;;
13208;SDS011;6669;42.678;23.332;2023-07-29T06:31:47;3.00;;;2.20;;
13208;SDS011;6669;42.678;23.332;2023-07-29T06:34:16;3.45;;;2.30;;
13208;SDS011;6669;42.678;23.332;2023-07-29T06:36:44;2.28;;;2.08;;
13208;SDS011;6669;42.678;23.332;2023-07-29T06:39:12;2.65;;;2.20;;
13208;SDS011;6669;42.678;23.332;2023-07-29T06:41:40;2.40;;;2.20;;
13208;SDS011;6669;42.678;23.332;2023-07-29T06:44:08;3.35;;;2.17;;
13208;SDS011;6669;42.678;23.332;2023-07-29T06:46:36;4.38;;;3.75;;
13208;SDS011;6669;42.678;23.332;2023-07-29T06:49:05;3.15;;;2.83;;
13208;SDS011;6669;42.678;23.332;2023-07-29T06:51:35;3.28;;;2.58;;
13208;SDS011;6669;42.678;23.332;2023-07-29T06:54:03;2.58;;;2.30;;
13208;SDS011;6669;42.678;23.332;2023-07-29T06:56:31;2.60;;;2.33;;
13208;SDS011;6669;42.678;23.332;2023-07-29T06:58:59;2.17;;;1.98;;
13208;SDS011;6669;42.678;23.332;2023-07-29T07:01:27;3.38;;;2.42;;
13208;SDS011;6669;42.678;23.332;2023-07-29T07:03:55;2.85;;;2.55;;
13208;SDS011;6669;42.678;23.332;2023-07-29T07:06:25;3.03;;;2.58;;
13208;SDS011;6669;42.678;23.332;2023-07-29T07:08:54;2.42;;;2.22;;
13208;SDS011;6669;42.678;23.332;2023-07-29T07:11:22;3.75;;;3.35;;
13208;SDS011;6669;42.678;23.332;2023-07-29T07:13:50;2.92;;;2.60;;
13208;SDS011;6669;42.678;23.332;2023-07-29T07:16:18;4.90;;;3.05;;
13208;SDS011;6669;42.678;23.332;2023-07-29T07:18:46;3.00;;;2.70;;
13208;SDS011;6669;42.678;23.332;2023-07-29T07:21:14;3.80;;;2.85;;
13208;SDS011;6669;42.678;23.332;2023-07-29T07:23:42;5.30;;;3.20;;
13208;SDS011;6669;42.678;23.332;2023-07-29T07:26:11;4.45;;;2.85;;
13208;SDS011;6669;42.678;23.332;2023-07-29T07:28:39;3.80;;;3.08;;
13208;SDS011;6669;42.678;23.332;2023-07-29T07:31:07;3.70;;;2.55;;
13208;SDS011;6669;42.678;23.332;2023-07-29T07:33:35;5.10;;;2.60;;
13208;SDS011;6669;42.678;23.332;2023-07-29T07:36:03;3.08;;;2.70;;
13208;SDS011;6669;42.678;23.332;2023-07-29T07:38:32;2.40;;;2.20;;
13208;SDS011;6669;42.678;23.332;2023-07-29T07:41:00;2.78;;;2.55;;
13208;SDS011;6669;42.678;23.332;2023-07-29T07:43:29;3.53;;;2.60;;
13208;SDS011;6669;42.678;23.332;2023-07-29T07:45:58;3.75;;;2.70;;
13208;SDS011;6669;42.678;23.332;2023-07-29T07:48:27;2.35;;;2.15;;
13208;SDS011;6669;42.678;23.332;2023-07-29T07:50:55;2.85;;;2.60;;
13208;SDS011;6669;42.678;23.332;2023-07-29T07:53:23;3.33;;;3.00;;
13208;SDS011;6669;42.678;23.332;2023-07-29T07:55:52;2.85;;;2.40;;
13208;SDS011;6669;42.678;23.332;2023-07-29T07:58:20;4.40;;;2.60;;
13208;SDS011;6669;42.678;23.332;2023-07-29T08:00:50;3.35;;;2.50;;
13208;SDS011;6669;42.678;23.332;2023-07-29T08:03:18;2.92;;;2.65;;
13208;SDS011;6669;42.678;23.332;2023-07-29T08:05:46;2.67;;;2.47;;
13208;SDS011;6669;42.678;23.332;2023-07-29T08:08:14;2.72;;;2.53;;
13208;SDS011;6669;42.678;23.332;2023-07-29T08:10:42;2.78;;;2.40;;
13208;SDS011;6669;42.678;23.332;2023-07-29T08:13:10;3.55;;;2.20;;
13208;SDS011;6669;42.678;23.332;2023-07-29T08:15:38;2.50;;;2.25;;
13208;SDS011;6669;42.678;23.332;2023-07-29T08:18:08;2.60;;;2.40;;
13208;SDS011;6669;42.678;23.332;2023-07-29T08:20:36;4.85;;;2.65;;
13208;SDS011;6669;42.678;23.332;2023-07-29T08:23:04;2.65;;;2.45;;
13208;SDS011;6669;42.678;23.332;2023-07-29T08:25:32;2.55;;;2.35;;
13208;SDS011;6669;42.678;23.332;2023-07-29T08:28:01;2.53;;;2.33;;
13208;SDS011;6669;42.678;23.332;2023-07-29T08:30:29;3.83;;;2.10;;
13208;SDS011;6669;42.678;23.332;2023-07-29T08:32:57;2.42;;;2.10;;
13208;SDS011;6669;42.678;23.332;2023-07-29T08:35:26;3.55;;;2.35;;
13208;SDS011;6669;42.678;23.332;2023-07-29T08:37:54;3.47;;;2.70;;
13208;SDS011;6669;42.678;23.332;2023-07-29T08:40:23;3.15;;;2.28;;
13208;SDS011;6669;42.678;23.332;2023-07-29T08:42:55;2.60;;;2.22;;
13208;SDS011;6669;42.678;23.332;2023-07-29T08:45:25;2.83;;;2.30;;
13208;SDS011;6669;42.678;23.332;2023-07-29T08:47:54;3.30;;;2.40;;
13208;SDS011;6669;42.678;23.332;2023-07-29T08:50:27;3.22;;;2.10;;
13208;SDS011;6669;42.678;23.332;2023-07-29T08:52:59;3.45;;;2.10;;
13208;SDS011;6669;42.678;23.332;2023-07-29T08:55:31;2.03;;;1.80;;
13208;SDS011;6669;42.678;23.332;2023-07-29T08:57:59;3.50;;;1.70;;
13208;SDS011;6669;42.678;23.332;2023-07-29T09:00:28;1.85;;;1.70;;
13208;SDS011;6669;42.678;23.332;2023-07-29T09:02:56;1.70;;;1.38;;
13208;SDS011;6669;42.678;23.332;2023-07-29T09:05:30;1.73;;;1.20;;
13208;SDS011;6669;42.678;23.332;2023-07-29T09:07:58;2.00;;;1.48;;
13208;SDS011;6669;42.678;23.332;2023-07-29T09:10:26;1.67;;;1.52;;
13208;SDS011;6669;42.678;23.332;2023-07-29T09:12:54;1.42;;;1.33;;
13208;SDS011;6669;42.678;23.332;2023-07-29T09:15:26;1.27;;;1.20;;
13208;SDS011;6669;42.678;23.332;2023-07-29T09:17:56;1.58;;;1.48;;
13208;SDS011;6669;42.678;23.332;2023-07-29T09:20:28;2.22;;;1.23;;
13208;SDS011;6669;42.678;23.332;2023-07-29T09:22:58;1.80;;;1.52;;
13208;SDS011;6669;42.678;23.332;2023-07-29T09:25:28;1.90;;;1.70;;
13208;SDS011;6669;42.678;23.332;2023-07-29T09:27:58;1.52;;;1.42;;
13208;SDS011;6669;42.678;23.332;2023-07-29T09:30:27;1.42;;;1.10;;
13208;SDS011;6669;42.678;23.332;2023-07-29T09:32:55;1.65;;;1.33;;
13208;SDS011;6669;42.678;23.332;2023-07-29T09:35:24;1.35;;;1.25;;
13208;SDS011;6669;42.678;23.332;2023-07-29T09:37:55;1.23;;;1.17;;
13208;SDS011;6669;42.678;23.332;2023-07-29T09:40:24;1.20;;;1.10;;
13208;SDS011;6669;42.678;23.332;2023-07-29T09:42:53;1.50;;;1.40;;
13208;SDS011;6669;42.678;23.332;2023-07-29T09:45:22;2.45;;;1.90;;
13208;SDS011;6669;42.678;23.332;2023-07-29T09:47:52;1.50;;;1.40;;
13208;SDS011;6669;42.678;23.332;2023-07-29T09:50:22;1.58;;;1.30;;
13208;SDS011;6669;42.678;23.332;2023-07-29T09:52:51;1.40;;;1.30;;
13208;SDS011;6669;42.678;23.332;2023-07-29T09:55:22;1.85;;;1.52;;
13208;SDS011;6669;42.678;23.332;2023-07-29T09:57:54;1.35;;;1.25;;
13208;SDS011;6669;42.678;23.332;2023-07-29T10:00:24;1.02;;;1.02;;
13208;SDS011;6669;42.678;23.332;2023-07-29T10:02:52;1.75;;;1.45;;
13208;SDS011;6669;42.678;23.332;2023-07-29T10:05:21;1.48;;;1.38;;
13208;SDS011;6669;42.678;23.332;2023-07-29T10:07:50;1.63;;;1.23;;
13208;SDS011;6669;42.678;23.332;2023-07-29T10:10:19;1.30;;;1.20;;
13208;SDS011;6669;42.678;23.332;2023-07-29T10:12:48;1.60;;;1.30;;
13208;SDS011;6669;42.678;23.332;2023-07-29T10:15:19;0.70;;;0.70;;
13208;SDS011;6669;42.678;23.332;2023-07-29T10:17:48;1.10;;;0.95;;
13208;SDS011;6669;42.678;23.332;2023-07-29T10:20:19;2.47;;;1.83;;
13208;SDS011;6669;42.678;23.332;2023-07-29T10:22:47;1.10;;;1.00;;
13208;SDS011;6669;42.678;23.332;2023-07-29T10:25:17;2.28;;;2.08;;
13208;SDS011;6669;42.678;23.332;2023-07-29T10:27:47;1.60;;;1.50;;
13208;SDS011;6669;42.678;23.332;2023-07-29T10:30:21;0.70;;;0.70;;
13208;SDS011;6669;42.678;23.332;2023-07-29T10:32:49;1.08;;;0.98;;
13208;SDS011;6669;42.678;23.332;2023-07-29T10:35:19;0.98;;;0.90;;
13208;SDS011;6669;42.678;23.332;2023-07-29T10:37:47;0.68;;;0.68;;
13208;SDS011;6669;42.678;23.332;2023-07-29T10:40:17;0.77;;;0.77;;
13208;SDS011;6669;42.678;23.332;2023-07-29T10:42:59;1.27;;;1.17;;
13208;SDS011;6669;42.678;23.332;2023-07-29T10:45:37;0.90;;;0.80;;
13208;SDS011;6669;42.678;23.332;2023-07-29T10:48:06;1.00;;;1.00;;
13208;SDS011;6669;42.678;23.332;2023-07-29T10:50:37;1.08;;;0.98;;
13208;SDS011;6669;42.678;23.332;2023-07-29T10:53:06;0.93;;;0.93;;
13208;SDS011;6669;42.678;23.332;2023-07-29T10:55:34;1.02;;;1.00;;
13208;SDS011;6669;42.678;23.332;2023-07-29T10:58:04;1.35;;;0.85;;
13208;SDS011;6669;42.678;23.332;2023-07-29T11:00:34;0.80;;;0.80;;
13208;SDS011;6669;42.678;23.332;2023-07-29T11:03:05;2.38;;;1.05;;
13208;SDS011;6669;42.678;23.332;2023-07-29T11:05:44;0.88;;;0.85;;
13208;SDS011;6669;42.678;23.332;2023-07-29T11:08:19;0.73;;;0.73;;
13208;SDS011;6669;42.678;23.332;2023-07-29T11:11:02;0.75;;;0.75;;
13208;SDS011;6669;42.678;23.332;2023-07-29T11:13:32;1.27;;;0.90;;
13208;SDS011;6669;42.678;23.332;2023-07-29T11:16:02;0.60;;;0.60;;
13208;SDS011;6669;42.678;23.332;2023-07-29T11:18:33;0.90;;;0.57;;
13208;SDS011;6669;42.678;23.332;2023-07-29T11:21:03;2.65;;;0.65;;
13208;SDS011;6669;42.678;23.332;2023-07-29T11:23:32;1.52;;;0.70;;
13208;SDS011;6669;42.678;23.332;2023-07-29T11:26:01;0.60;;;0.60;;
13208;SDS011;6669;42.678;23.332;2023-07-29T11:28:30;0.55;;;0.55;;
13208;SDS011;6669;42.678;23.332;2023-07-29T11:30:58;1.30;;;0.80;;
13208;SDS011;6669;42.678;23.332;2023-07-29T11:33:27;0.90;;;0.90;;
13208;SDS011;6669;42.678;23.332;2023-07-29T11:35:56;1.05;;;0.88;;
13208;SDS011;6669;42.678;23.332;2023-07-29T11:38:24;0.65;;;0.65;;
13208;SDS011;6669;42.678;23.332;2023-07-29T11:40:59;0.85;;;0.80;;
13208;SDS011;6669;42.678;23.332;2023-07-29T11:43:29;0.65;;;0.65;;
13208;SDS011;6669;42.678;23.332;2023-07-29T11:45:57;1.00;;;0.80;;
13208;SDS011;6669;42.678;23.332;2023-07-29T11:48:31;1.35;;;1.00;;
13208;SDS011;6669;42.678;23.332;2023-07-29T11:51:01;0.68;;;0.68;;
13208;SDS011;6669;42.678;23.332;2023-07-29T11:53:30;0.82;;;0.82;;
13208;SDS011;6669;42.678;23.332;2023-07-29T11:55:58;0.75;;;0.75;;
13208;SDS011;6669;42.678;23.332;2023-07-29T11:58:26;0.60;;;0.60;;
13208;SDS011;6669;42.678;23.332;2023-07-29T12:00:54;0.70;;;0.70;;
13208;SDS011;6669;42.678;23.332;2023-07-29T12:03:23;1.15;;;0.95;;
13208;SDS011;6669;42.678;23.332;2023-07-29T12:05:52;1.08;;;1.08;;
13208;SDS011;6669;42.678;23.332;2023-07-29T12:08:21;0.80;;;0.80;;
13208;SDS011;6669;42.678;23.332;2023-07-29T12:10:50;1.67;;;0.90;;
13208;SDS011;6669;42.678;23.332;2023-07-29T12:13:18;1.33;;;0.80;;
13208;SDS011;6669;42.678;23.332;2023-07-29T12:15:46;0.77;;;0.77;;
13208;SDS011;6669;42.678;23.332;2023-07-29T12:18:14;1.02;;;1.02;;
13208;SDS011;6669;42.678;23.332;2023-07-29T12:20:42;0.93;;;0.80;;
13208;SDS011;6669;42.678;23.332;2023-07-29T12:23:11;0.93;;;0.70;;
13208;SDS011;6669;42.678;23.332;2023-07-29T12:25:40;1.67;;;0.95;;
13208;SDS011;6669;42.678;23.332;2023-07-29T12:28:08;0.70;;;0.70;;
13208;SDS011;6669;42.678;23.332;2023-07-29T12:30:41;1.77;;;1.08;;
13208;SDS011;6669;42.678;23.332;2023-07-29T12:33:09;0.98;;;0.90;;
13208;SDS011;6669;42.678;23.332;2023-07-29T12:35:37;0.80;;;0.80;;
13208;SDS011;6669;42.678;23.332;2023-07-29T12:38:05;1.08;;;0.98;;
13208;SDS011;6669;42.678;23.332;2023-07-29T12:40:37;0.85;;;0.85;;
13208;SDS011;6669;42.678;23.332;2023-07-29T12:43:07;1.10;;;1.00;;
13208;SDS011;6669;42.678;23.332;2023-07-29T12:45:36;0.65;;;0.60;;
13208;SDS011;6669;42.678;23.332;2023-07-29T12:48:06;0.73;;;0.73;;
13208;SDS011;6669;42.678;23.332;2023-07-29T12:50:35;0.70;;;0.70;;
13208;SDS011;6669;42.678;23.332;2023-07-29T12:53:04;0.70;;;0.70;;
13208;SDS011;6669;42.678;23.332;2023-07-29T12:55:32;0.93;;;0.75;;
13208;SDS011;6669;42.678;23.332;2023-07-29T12:58:00;1.45;;;1.02;;
13208;SDS011;6669;42.678;23.332;2023-07-29T13:00:29;0.80;;;0.80;;
13208;SDS011;6669;42.678;23.332;2023-07-29T13:02:58;1.10;;;0.98;;
13208;SDS011;6669;42.678;23.332;2023-07-29T13:05:26;2.65;;;2.42;;
13208;SDS011;6669;42.678;23.332;2023-07-29T13:07:54;0.95;;;0.95;;
13208;SDS011;6669;42.678;23.332;2023-07-29T13:10:22;0.93;;;0.82;;
13208;SDS011;6669;42.678;23.332;2023-07-29T13:12:50;1.00;;;0.90;;
13208;SDS011;6669;42.678;23.332;2023-07-29T13:15:18;0.85;;;0.65;;
13208;SDS011;6669;42.678;23.332;2023-07-29T13:17:47;1.92;;;1.20;;
13208;SDS011;6669;42.678;23.332;2023-07-29T13:20:15;0.90;;;0.90;;
13208;SDS011;6669;42.678;23.332;2023-07-29T13:22:43;1.20;;;1.10;;
13208;SDS011;6669;42.678;23.332;2023-07-29T13:25:11;0.75;;;0.75;;
13208;SDS011;6669;42.678;23.332;2023-07-29T13:27:39;1.10;;;1.00;;
13208;SDS011;6669;42.678;23.332;2023-07-29T13:30:08;1.00;;;0.90;;
13208;SDS011;6669;42.678;23.332;2023-07-29T13:32:36;0.70;;;0.70;;
13208;SDS011;6669;42.678;23.332;2023-07-29T13:35:06;1.13;;;0.90;;
13208;SDS011;6669;42.678;23.332;2023-07-29T13:37:35;0.95;;;0.95;;
13208;SDS011;6669;42.678;23.332;2023-07-29T13:40:03;1.08;;;1.02;;
13208;SDS011;6669;42.678;23.332;2023-07-29T13:42:32;0.90;;;0.90;;
13208;SDS011;6669;42.678;23.332;2023-07-29T13:45:00;1.40;;;0.88;;
13208;SDS011;6669;42.678;23.332;2023-07-29T13:47:28;0.85;;;0.85;;
13208;SDS011;6669;42.678;23.332;2023-07-29T13:49:56;0.90;;;0.90;;
13208;SDS011;6669;42.678;23.332;2023-07-29T13:52:25;1.20;;;1.10;;
13208;SDS011;6669;42.678;23.332;2023-07-29T13:54:53;1.02;;;0.93;;
13208;SDS011;6669;42.678;23.332;2023-07-29T13:57:21;2.97;;;1.10;;
13208;SDS011;6669;42.678;23.332;2023-07-29T13:59:49;0.90;;;0.90;;
13208;SDS011;6669;42.678;23.332;2023-07-29T14:02:17;0.73;;;0.73;;
13208;SDS011;6669;42.678;23.332;2023-07-29T14:04:45;1.20;;;1.10;;
13208;SDS011;6669;42.678;23.332;2023-07-29T14:07:14;1.30;;;1.20;;
13208;SDS011;6669;42.678;23.332;2023-07-29T14:09:43;1.98;;;1.00;;
13208;SDS011;6669;42.678;23.332;2023-07-29T14:12:11;1.20;;;1.10;;
13208;SDS011;6669;42.678;23.332;2023-07-29T14:14:41;2.10;;;1.05;;
13208;SDS011;6669;42.678;23.332;2023-07-29T14:17:09;2.10;;;1.10;;
13208;SDS011;6669;42.678;23.332;2023-07-29T14:19:37;1.30;;;1.20;;
13208;SDS011;6669;42.678;23.332;2023-07-29T14:22:05;1.30;;;0.98;;
13208;SDS011;6669;42.678;23.332;2023-07-29T14:24:33;1.20;;;1.10;;
13208;SDS011;6669;42.678;23.332;2023-07-29T14:27:03;1.10;;;1.00;;
13208;SDS011;6669;42.678;23.332;2023-07-29T14:29:31;1.50;;;1.40;;
13208;SDS011;6669;42.678;23.332;2023-07-29T14:31:59;1.15;;;1.10;;
13208;SDS011;6669;42.678;23.332;2023-07-29T14:34:27;0.73;;;0.73;;
13208;SDS011;6669;42.678;23.332;2023-07-29T14:36:55;0.88;;;0.88;;
13208;SDS011;6669;42.678;23.332;2023-07-29T14:39:23;0.95;;;0.95;;
13208;SDS011;6669;42.678;23.332;2023-07-29T14:41:51;0.98;;;0.98;;
13208;SDS011;6669;42.678;23.332;2023-07-29T14:44:21;0.90;;;0.90;;
13208;SDS011;6669;42.678;23.332;2023-07-29T14:46:49;1.13;;;1.02;;
13208;SDS011;6669;42.678;23.332;2023-07-29T14:49:17;1.27;;;1.17;;
13208;SDS011;6669;42.678;23.332;2023-07-29T14:51:45;0.98;;;0.98;;
13208;SDS011;6669;42.678;23.332;2023-07-29T14:54:13;1.15;;;1.10;;
13208;SDS011;6669;42.678;23.332;2023-07-29T14:56:41;0.93;;;0.93;;
13208;SDS011;6669;42.678;23.332;2023-07-29T14:59:09;2.03;;;1.10;;